Time;durP1;ratioP1;P1;durP2;ratioP2;P2;SDS_P1;SDS_P2;PMS_P1;PMS_P2;Temp;Humidity;BMP_temperature;BMP_pressure;BME280_temperature;BME280_humidity;BME280_pressure;Samples;Min_cycle;Max_cycle;Signal;HPM_P1;HPM_P2
2023/03/08 00:00:40;;;;;;;12.03;4.90;;;-2.30;99.90;;;;;;4802104;29;20058;-83
2023/03/08 00:03:21;;;;;;;11.63;5.13;;;-1.70;99.90;;;;;;4816627;29;20054;-84
2023/03/08 00:06:36;;;;;;;10.93;5.13;;;-1.60;99.90;;;;;;4833011;29;20033;-83
2023/03/08 00:09:09;;;;;;;13.13;4.85;;;-1.00;99.90;;;;;;4844897;29;20130;-84
2023/03/08 00:11:50;;;;;;;13.27;4.80;;;-2.80;99.90;;;;;;4831090;29;20507;-84
2023/03/08 00:18:37;;;;;;;12.67;4.90;;;-0.10;99.90;;;;;;4816825;29;20057;-84
2023/03/08 00:21:21;;;;;;;;;;;;;;;;;;;;;
2023/03/08 00:24:18;;;;;;;10.87;4.73;;;-0.70;99.90;;;;;;4784341;29;20495;-83
2023/03/08 00:26:59;;;;;;;12.57;4.70;;;-0.30;99.90;;;;;;4822455;29;20104;-84
2023/03/08 00:29:39;;;;;;;9.80;4.53;;;-1.00;99.90;;;;;;4876006;24;20054;-83
2023/03/08 00:32:25;;;;;;;12.63;4.80;;;-1.60;99.90;;;;;;4829007;29;20095;-83
2023/03/08 00:35:13;;;;;;;11.90;4.80;;;-0.20;99.90;;;;;;4808488;29;20133;-84
2023/03/08 00:43:19;;;;;;;13.20;5.47;;;-1.60;99.90;;;;;;5217772;24;20062;-83
2023/03/08 00:45:45;;;;;;;12.50;5.10;;;-1.90;99.90;;;;;;4839621;23;20046;-83
2023/03/08 00:48:32;;;;;;;11.50;5.23;;;-1.40;99.90;;;;;;4836394;29;20034;-83
2023/03/08 00:51:18;;;;;;;13.27;5.77;;;-1.70;99.90;;;;;;4820972;29;20088;-83
2023/03/08 00:53:47;;;;;;;13.50;5.97;;;-1.60;99.90;;;;;;4816039;24;21817;-83
2023/03/08 00:57:17;;;;;;;14.40;6.17;;;-0.30;99.90;;;;;;4837612;29;20117;-83
2023/03/08 00:59:45;;;;;;;12.13;5.97;;;-0.40;99.90;;;;;;4803715;29;20055;-83
2023/03/08 01:04:49;;;;;;;16.50;6.23;;;-1.50;99.90;;;;;;4888595;24;20054;-83
2023/03/08 01:10:19;;;;;;;13.27;6.50;;;-1.90;99.90;;;;;;4812872;29;20042;-83
2023/03/08 01:13:19;;;;;;;12.83;6.20;;;-1.40;99.90;;;;;;4830263;29;20094;-84
2023/03/08 01:15:59;;;;;;;13.17;6.30;;;-1.80;99.90;;;;;;4787212;29;20073;-84
2023/03/08 01:18:33;;;;;;;13.33;6.40;;;-1.30;99.90;;;;;;4784841;29;20043;-83
2023/03/08 01:23:55;;;;;;;14.27;6.57;;;-1.60;99.90;;;;;;4775145;29;20131;-84
2023/03/08 01:30:34;;;;;;;15.07;6.50;;;-1.20;99.90;;;;;;4789629;29;20090;-83
2023/03/08 01:33:21;;;;;;;15.17;6.47;;;-2.30;99.90;;;;;;4789625;29;20644;-83
2023/03/08 01:36:15;;;;;;;16.50;7.10;;;-3.10;99.90;;;;;;4802414;29;20066;-83
2023/03/08 01:38:42;;;;;;;;;;;-2.60;99.90;;;;;;4785911;29;20055;-83
2023/03/08 01:44:28;;;;;;;13.50;6.40;;;0.50;99.90;;;;;;4789693;24;20080;-83
2023/03/08 01:50:28;;;;;;;16.37;7.43;;;-1.60;99.90;;;;;;4884550;24;20519;-83
2023/03/08 02:00:29;;;;;;;18.27;8.53;;;-0.80;99.90;;;;;;4821708;29;20115;-82
2023/03/08 02:03:14;;;;;;;19.23;8.93;;;-1.20;99.90;;;;;;4824238;29;20080;-84
2023/03/08 02:06:03;;;;;;;19.63;9.00;;;-1.20;99.90;;;;;;4807680;29;20051;-83
2023/03/08 02:08:31;;;;;;;18.13;9.47;;;0.30;99.90;;;;;;4805944;29;20047;-84
2023/03/08 02:10:57;;;;;;;18.87;9.40;;;-0.30;99.90;;;;;;4811548;29;20054;-84
2023/03/08 02:13:26;;;;;;;19.40;9.07;;;-0.80;99.90;;;;;;4836763;29;20038;-83
2023/03/08 02:16:15;;;;;;;17.77;9.80;;;-1.70;99.90;;;;;;4808958;29;20054;-83
2023/03/08 02:19:35;;;;;;;18.20;9.40;;;-1.80;99.90;;;;;;4823514;29;20065;-83
2023/03/08 02:22:16;;;;;;;18.40;9.33;;;-1.60;99.90;;;;;;4805124;29;20047;-83
2023/03/08 02:32:27;;;;;;;;;;;;;;;;;;;;;
2023/03/08 02:38:29;;;;;;;20.70;11.23;;;-2.00;99.90;;;;;;5100316;23;20081;-83
2023/03/08 02:41:46;;;;;;;23.73;11.57;;;-2.70;99.90;;;;;;4833982;29;20046;-83
2023/03/08 02:44:16;;;;;;;22.53;11.60;;;-2.10;99.90;;;;;;4812726;29;20061;-84
2023/03/08 02:46:41;;;;;;;27.20;12.23;;;-2.00;99.90;;;;;;4812637;29;20054;-84
2023/03/08 02:49:31;;;;;;;24.00;12.13;;;-1.60;99.90;;;;;;4810132;29;20046;-83
2023/03/08 02:51:53;;;;;;;27.73;12.50;;;-2.00;99.90;;;;;;4820842;24;20058;-84
2023/03/08 02:54:22;;;;;;;22.90;12.17;;;-1.50;99.90;;;;;;4844782;29;20483;-83
2023/03/08 02:57:10;;;;;;;22.17;11.97;;;-1.10;99.90;;;;;;4847028;24;20053;-83
2023/03/08 03:03:25;;;;;;;23.27;12.15;;;-2.80;99.90;;;;;;4835331;29;20061;-84
2023/03/08 03:06:34;;;;;;;23.17;12.73;;;-0.70;99.90;;;;;;4834362;29;20179;-83
2023/03/08 03:09:10;;;;;;;24.23;11.83;;;-2.20;99.90;;;;;;4816150;29;20046;-83
2023/03/08 03:11:40;;;;;;;22.67;12.23;;;-1.80;99.90;;;;;;4841546;29;20041;-83
2023/03/08 03:14:06;;;;;;;24.37;13.43;;;-2.30;99.90;;;;;;4812384;29;20050;-83
2023/03/08 03:16:35;;;;;;;25.87;14.20;;;-2.20;99.90;;;;;;4811625;29;20049;-83
2023/03/08 03:19:24;;;;;;;24.57;13.60;;;-2.10;99.90;;;;;;4814917;29;20061;-83
2023/03/08 03:34:25;;;;;;;;;;;-2.00;99.90;;;;;;4773318;29;20067;-83
2023/03/08 03:36:51;;;;;;;25.37;13.33;;;-2.30;99.90;;;;;;4790632;29;19926;-84
2023/03/08 03:39:54;;;;;;;24.87;13.73;;;-2.30;99.90;;;;;;4789853;29;20053;-83
2023/03/08 03:42:19;;;;;;;25.67;15.00;;;-1.60;99.90;;;;;;5076161;24;20050;-83
2023/03/08 03:45:36;;;;;;;24.87;14.43;;;-2.00;99.90;;;;;;4807722;29;20050;-84
2023/03/08 03:48:52;;;;;;;26.53;14.40;;;-1.80;99.90;;;;;;4796473;29;20094;-83
2023/03/08 03:55:25;;;;;;;25.90;14.87;;;-1.00;99.90;;;;;;4832279;23;20145;-83
2023/03/08 03:57:51;;;;;;;27.47;15.40;;;-1.20;99.90;;;;;;4811046;29;20089;-83
2023/03/08 04:00:29;;;;;;;28.73;15.03;;;-2.60;99.90;;;;;;4829794;24;20428;-83
2023/03/08 04:05:34;;;;;;;27.20;15.23;;;-2.40;99.90;;;;;;4856522;24;20057;-83
2023/03/08 04:08:07;;;;;;;28.70;15.33;;;-2.70;99.90;;;;;;4828912;29;20054;-83
2023/03/08 04:10:45;;;;;;;25.52;14.60;;;-2.40;99.90;;;;;;4826604;29;20054;-83
2023/03/08 04:16:49;;;;;;;25.27;14.77;;;-2.50;99.90;;;;;;5115685;24;20059;-83
2023/03/08 04:22:04;;;;;;;25.20;14.47;;;-1.90;99.90;;;;;;4818730;24;20494;-83
2023/03/08 04:27:45;;;;;;;25.77;14.87;;;-2.30;99.90;;;;;;4859510;29;20064;-83
2023/03/08 04:34:44;;;;;;;27.90;14.77;;;-3.10;99.90;;;;;;4860931;29;20492;-83
2023/03/08 04:37:15;;;;;;;24.90;14.77;;;-1.80;99.90;;;;;;4869479;29;20049;-82
2023/03/08 04:39:41;;;;;;;24.07;14.67;;;-0.40;99.90;;;;;;4869812;29;20402;-83
2023/03/08 04:46:07;;;;;;;24.80;14.00;;;-3.00;99.90;;;;;;4864157;24;20056;-83
2023/03/08 04:48:38;;;;;;;25.50;14.27;;;-3.00;99.90;;;;;;4827145;29;20525;-83
2023/03/08 04:51:38;;;;;;;27.10;14.17;;;-2.30;99.90;;;;;;4840402;29;20042;-83
2023/03/08 04:57:48;;;;;;;25.70;14.40;;;-3.20;99.90;;;;;;4825771;29;20072;-83
2023/03/08 05:02:58;;;;;;;26.67;14.47;;;-2.60;99.90;;;;;;4854719;24;20057;-83
2023/03/08 05:05:50;;;;;;;24.30;13.90;;;-1.70;99.90;;;;;;4949711;23;20056;-83
2023/03/08 05:08:34;;;;;;;23.53;14.40;;;-2.50;99.90;;;;;;4814623;29;20491;-84
2023/03/08 05:11:00;;;;;;;;;;;-1.80;99.90;;;;;;4823373;29;20053;-83
2023/03/08 05:13:28;;;;;;;23.03;13.60;;;-2.70;99.90;;;;;;4822388;24;19925;-83
2023/03/08 05:16:25;;;;;;;24.73;14.47;;;-2.40;99.90;;;;;;4834495;29;20115;-83
2023/03/08 05:19:13;;;;;;;25.63;13.40;;;-1.90;99.90;;;;;;4824557;29;20066;-83
2023/03/08 05:21:38;;;;;;;21.60;13.80;;;-1.10;99.90;;;;;;4807680;29;20046;-83
2023/03/08 05:24:04;;;;;;;24.47;14.77;;;-3.00;99.90;;;;;;4824894;29;20522;-83
2023/03/08 05:26:30;;;;;;;21.53;13.37;;;-2.90;99.90;;;;;;4817498;29;20518;-83
2023/03/08 05:29:47;;;;;;;25.73;14.20;;;-3.10;99.90;;;;;;4812924;29;20058;-83
2023/03/08 05:32:38;;;;;;;25.77;14.53;;;-3.80;99.90;;;;;;4810442;29;20065;-83
2023/03/08 05:35:10;;;;;;;23.27;14.23;;;-1.10;99.90;;;;;;4831194;29;20050;-83
2023/03/08 05:37:45;;;;;;;22.20;13.70;;;-3.20;99.90;;;;;;4808949;29;20046;-83
2023/03/08 05:43:57;;;;;;;24.23;14.90;;;-2.10;99.90;;;;;;4840826;29;20490;-84
2023/03/08 05:46:25;;;;;;;25.03;14.53;;;-1.70;99.90;;;;;;4805625;29;20053;-84
2023/03/08 05:49:12;;;;;;;28.50;15.37;;;-3.60;99.90;;;;;;4823190;24;20077;-83
2023/03/08 05:52:03;;;;;;;26.00;14.80;;;-3.50;99.90;;;;;;4826674;29;20113;-83
2023/03/08 05:54:29;;;;;;;26.33;14.27;;;-3.00;99.90;;;;;;4847617;29;20057;-84
2023/03/08 05:56:58;;;;;;;24.17;15.33;;;-3.10;99.90;;;;;;4813061;29;20492;-84
2023/03/08 05:59:30;;;;;;;24.87;15.40;;;-3.30;99.90;;;;;;4807853;29;20050;-83
2023/03/08 06:02:21;;;;;;;26.63;15.20;;;-3.00;99.90;;;;;;4807409;29;20064;-84
2023/03/08 06:04:55;;;;;;;24.50;14.73;;;-2.60;99.90;;;;;;4826572;29;20506;-83
2023/03/08 06:11:03;;;;;;;26.80;15.57;;;-2.60;99.90;;;;;;5060662;24;20148;-84
2023/03/08 06:17:52;;;;;;;24.80;15.30;;;-3.00;99.90;;;;;;4910231;24;20335;-83
2023/03/08 06:25:33;;;;;;;27.50;16.10;;;-3.50;99.90;;;;;;4807108;29;20138;-85
2023/03/08 06:28:40;;;;;;;;;;;;;;;;;;;;;
2023/03/08 06:39:07;;;;;;;32.60;18.80;;;-3.20;99.90;;;;;;4684146;30;20050;-94
2023/03/08 06:41:51;;;;;;;29.23;18.57;;;-2.70;99.90;;;;;;4682970;30;20057;-87
2023/03/08 06:47:29;;;;;;;32.03;19.50;;;-2.70;99.90;;;;;;4831928;29;20115;-93
2023/03/08 06:50:26;;;;;;;32.97;18.97;;;-2.40;99.90;;;;;;4834320;29;20054;-94
2023/03/08 07:08:40;;;;;;;33.93;19.87;;;-1.80;99.90;;;;;;4823129;29;20057;-91
2023/03/08 07:21:30;;;;;;;38.73;22.50;;;-2.20;99.90;;;;;;4861061;24;20063;-91
2023/03/08 07:28:15;;;;;;;43.53;24.60;;;-2.70;99.90;;;;;;4795882;29;20106;-92
2023/03/08 07:31:27;;;;;;;;;;;;;;;;;;;;;
2023/03/08 07:47:21;;;;;;;80.90;28.20;;;-1.20;99.90;;;;;;4805050;29;20123;-92
2023/03/08 07:52:56;;;;;;;97.47;30.40;;;-1.60;99.90;;;;;;4873741;24;20503;-92
2023/03/08 07:55:38;;;;;;;;;;;;;;;;;;;;;
2023/03/08 07:58:51;;;;;;;90.77;27.50;;;-1.00;99.90;;;;;;4823570;29;20124;-92
2023/03/08 08:01:31;;;;;;;66.03;26.98;;;-2.10;99.90;;;;;;4848180;29;20042;-93
2023/03/08 09:39:14;;;;;;;;;;;;;;;;;;;;;
2023/03/08 09:51:39;;;;;;;;;;;0.10;99.90;;;;;;4841636;29;20089;-91
2023/03/08 10:09:05;;;;;;;39.23;16.30;;;0.30;99.90;;;;;;5086070;23;20076;-90
2023/03/08 10:12:22;;;;;;;36.23;16.40;;;0.30;99.90;;;;;;4769819;30;20051;-91
2023/03/08 10:56:49;;;;;;;29.63;14.50;;;1.60;99.90;;;;;;4931617;23;20077;-95
2023/03/08 11:23:59;;;;;;;56.37;22.77;;;3.70;99.90;;;;;;4875457;23;20305;-90
2023/03/08 11:46:55;;;;;;;37.63;16.70;;;2.50;99.90;;;;;;4859757;23;20148;-91
2023/03/08 11:53:42;;;;;;;36.33;15.60;;;2.20;99.90;;;;;;4847129;24;20065;-91
2023/03/08 11:56:55;;;;;;;37.97;16.63;;;1.80;99.90;;;;;;4856048;29;20057;-92
2023/03/08 12:11:10;;;;;;;34.67;14.80;;;3.00;99.90;;;;;;4836173;24;20061;-92
2023/03/08 12:19:47;;;;;;;38.43;16.80;;;2.40;99.90;;;;;;5241274;24;20058;-93
2023/03/08 12:27:56;;;;;;;35.60;16.47;;;2.40;99.90;;;;;;4906066;23;20070;-93
2023/03/08 12:31:13;;;;;;;35.23;15.53;;;3.50;99.90;;;;;;4828318;29;20132;-92
2023/03/08 13:11:32;;;;;;;17.97;8.13;;;2.80;99.90;;;;;;5521448;23;20058;-93
2023/03/08 13:54:28;;;;;;;13.70;5.37;;;3.10;99.90;;;;;;5317735;23;20142;-92
2023/03/08 14:18:07;;;;;;;13.37;6.40;;;3.50;99.90;;;;;;4805277;29;20530;-93
2023/03/08 14:34:34;;;;;;;14.77;6.40;;;3.50;99.90;;;;;;5287841;24;20068;-92
2023/03/08 14:40:51;;;;;;;16.80;8.40;;;3.50;99.90;;;;;;4878399;23;20038;-96
2023/03/08 14:57:25;;;;;;;13.75;6.10;;;3.00;99.90;;;;;;4865855;29;20057;-96
2023/03/08 15:00:19;;;;;;;14.17;6.00;;;3.60;99.90;;;;;;4860400;29;20029;-96
2023/03/08 15:20:30;;;;;;;15.00;6.83;;;4.50;99.90;;;;;;4803491;29;20058;-96
2023/03/08 15:23:46;;;;;;;12.30;6.33;;;4.00;99.90;;;;;;4821881;29;20086;-94
2023/03/08 15:27:10;;;;;;;12.00;5.37;;;5.00;99.90;;;;;;4812142;29;20051;-96
2023/03/08 15:30:03;;;;;;;13.57;5.93;;;4.30;99.90;;;;;;4809576;29;20100;-95
2023/03/08 15:32:47;;;;;;;12.47;5.20;;;3.50;99.90;;;;;;4793662;29;20055;-96
2023/03/08 15:35:49;;;;;;;13.60;6.20;;;3.60;99.90;;;;;;4842748;23;20057;-96
2023/03/08 15:38:17;;;;;;;23.27;14.10;;;3.60;99.90;;;;;;4852915;29;20542;-95
2023/03/08 15:40:49;;;;;;;14.63;6.60;;;3.80;99.90;;;;;;4836112;29;20054;-96
2023/03/08 15:43:18;;;;;;;18.47;9.43;;;3.60;99.90;;;;;;4867247;29;20498;-96
2023/03/08 15:45:52;;;;;;;12.80;5.20;;;2.10;99.90;;;;;;4842097;29;20498;-96
2023/03/08 15:48:44;;;;;;;14.60;6.27;;;4.30;99.90;;;;;;4824657;24;20058;-96
2023/03/08 15:51:47;;;;;;;;;;;;;;;;;;;;;
2023/03/08 15:54:31;;;;;;;18.17;8.97;;;2.70;99.90;;;;;;4714143;30;20063;-95
2023/03/08 15:57:03;;;;;;;14.73;7.40;;;3.60;99.90;;;;;;4726970;30;20048;-92
2023/03/08 15:59:29;;;;;;;14.17;6.67;;;4.60;99.90;;;;;;4773111;29;20047;-92
2023/03/08 16:04:30;;;;;;;14.00;7.00;;;3.20;99.90;;;;;;4888377;23;20376;-90
2023/03/08 16:07:20;;;;;;;13.83;6.10;;;3.10;99.90;;;;;;4807044;29;20470;-95
2023/03/08 16:09:58;;;;;;;14.63;6.07;;;3.70;99.90;;;;;;4806550;29;20068;-93
2023/03/08 16:12:24;;;;;;;14.93;6.20;;;3.20;99.90;;;;;;4794364;29;20164;-94
2023/03/08 16:15:18;;;;;;;15.33;7.53;;;3.00;99.90;;;;;;4793694;29;20054;-94
2023/03/08 16:18:23;;;;;;;;;;;;;;;;;;;;;
2023/03/08 16:20:53;;;;;;;14.70;7.00;;;2.60;99.90;;;;;;4806369;29;20074;-89
2023/03/08 16:23:19;;;;;;;16.17;7.40;;;2.90;99.90;;;;;;4810229;29;20042;-92
2023/03/08 16:30:05;;;;;;;16.03;5.90;;;2.30;99.90;;;;;;4810681;29;20053;-93
2023/03/08 16:32:46;;;;;;;;;;;1.80;99.90;;;;;;4797577;29;20039;-92
2023/03/08 16:35:21;;;;;;;13.60;5.70;;;2.90;99.90;;;;;;4797526;29;19925;-94
2023/03/08 16:37:52;;;;;;;12.90;5.50;;;4.40;99.90;;;;;;4791681;29;20108;-90
2023/03/08 16:40:32;;;;;;;15.57;6.43;;;2.60;99.90;;;;;;4791902;29;20049;-92
2023/03/08 16:43:19;;;;;;;15.43;5.93;;;2.10;99.90;;;;;;4790780;29;20099;-91
2023/03/08 17:20:08;;;;;;;15.70;6.63;;;2.80;99.90;;;;;;4855393;29;20048;-96
2023/03/08 17:22:49;;;;;;;16.20;7.13;;;2.10;99.90;;;;;;4835283;29;20057;-95
2023/03/08 17:25:40;;;;;;;16.20;7.60;;;2.10;99.90;;;;;;5202129;24;20057;-94
2023/03/08 17:28:07;;;;;;;17.50;7.37;;;2.00;99.90;;;;;;4849323;29;20088;-94
2023/03/08 17:37:17;;;;;;;19.70;10.20;;;2.10;99.90;;;;;;5223161;24;20538;-93
2023/03/08 17:39:58;;;;;;;21.47;12.93;;;2.00;99.90;;;;;;4815902;29;20058;-92
2023/03/08 17:47:47;;;;;;;16.70;8.03;;;1.90;99.90;;;;;;5163125;23;20190;-91
2023/03/08 17:50:42;;;;;;;19.03;8.37;;;3.40;99.90;;;;;;5075536;24;20054;-93
2023/03/08 17:53:21;;;;;;;18.67;7.73;;;1.10;99.90;;;;;;4823095;29;20060;-91
2023/03/08 18:01:33;;;;;;;17.10;7.37;;;1.80;99.90;;;;;;5050016;24;20058;-82
2023/03/08 18:03:59;;;;;;;15.30;6.47;;;1.80;99.90;;;;;;4830111;24;20065;-86
2023/03/08 18:07:26;;;;;;;;;;;;;;;;;;;;;
2023/03/08 18:10:23;;;;;;;16.40;6.60;;;1.80;99.90;;;;;;4840621;29;20066;-86
2023/03/08 18:12:58;;;;;;;14.73;6.47;;;2.20;99.90;;;;;;4833141;24;20047;-86
2023/03/08 18:15:24;;;;;;;15.03;7.10;;;1.30;99.90;;;;;;4850240;23;20050;-86
2023/03/08 18:17:51;;;;;;;17.40;8.30;;;1.50;99.90;;;;;;4847504;29;20061;-86
2023/03/08 18:20:34;;;;;;;14.20;6.97;;;2.10;99.90;;;;;;4827492;24;20057;-86
2023/03/08 18:23:03;;;;;;;16.17;7.90;;;1.20;99.90;;;;;;4856532;24;20464;-86
2023/03/08 18:25:33;;;;;;;16.70;8.07;;;1.40;99.90;;;;;;4835801;29;20121;-86
2023/03/08 18:27:58;;;;;;;16.57;7.40;;;1.60;99.90;;;;;;4831388;29;20046;-87
2023/03/08 18:30:24;;;;;;;15.00;7.50;;;1.50;99.90;;;;;;4808506;29;20054;-86
2023/03/08 18:33:04;;;;;;;16.63;7.43;;;1.60;99.90;;;;;;4841837;24;20042;-86
2023/03/08 18:41:49;;;;;;;14.73;7.00;;;1.50;99.90;;;;;;4846116;24;20073;-86
2023/03/08 18:44:24;;;;;;;14.87;6.90;;;1.50;99.90;;;;;;4829304;29;20049;-86
2023/03/08 18:53:23;;;;;;;16.57;7.57;;;2.20;99.90;;;;;;5003948;24;20093;-86
2023/03/08 18:56:07;;;;;;;18.13;8.13;;;1.60;99.90;;;;;;4811449;29;20077;-87
2023/03/08 19:02:24;;;;;;;15.07;8.00;;;1.00;99.90;;;;;;4836029;23;20053;-86
2023/03/08 19:05:06;;;;;;;15.40;7.20;;;1.80;99.90;;;;;;4814271;24;20157;-86
2023/03/08 19:07:39;;;;;;;16.80;7.97;;;1.60;99.90;;;;;;4821356;29;20059;-86
2023/03/08 19:10:13;;;;;;;18.27;9.15;;;1.60;99.90;;;;;;4806058;29;20116;-86
2023/03/08 19:12:44;;;;;;;18.70;8.47;;;1.60;99.90;;;;;;4839821;29;20121;-87
2023/03/08 19:15:11;;;;;;;18.60;8.50;;;1.80;99.90;;;;;;4826359;29;20053;-86
2023/03/08 19:18:08;;;;;;;20.23;8.93;;;1.80;99.90;;;;;;4840846;29;20041;-86
2023/03/08 19:20:52;;;;;;;18.03;8.97;;;2.20;99.90;;;;;;4809539;29;20441;-85
2023/03/08 19:23:24;;;;;;;15.98;7.82;;;2.90;99.90;;;;;;4809644;29;20460;-86
2023/03/08 19:29:11;;;;;;;20.77;9.10;;;1.50;99.90;;;;;;4830584;29;20061;-86
2023/03/08 19:31:49;;;;;;;16.77;8.00;;;1.20;99.90;;;;;;4867733;29;20105;-86
2023/03/08 19:34:27;;;;;;;18.43;8.70;;;2.30;99.90;;;;;;4852801;29;20050;-86
2023/03/08 19:37:05;;;;;;;18.03;9.00;;;2.00;99.90;;;;;;4851628;29;20105;-86
2023/03/08 19:39:33;;;;;;;18.03;8.83;;;3.10;99.90;;;;;;4830323;29;20075;-87
2023/03/08 19:42:15;;;;;;;20.30;8.40;;;2.50;99.90;;;;;;4856289;29;20049;-87
2023/03/08 19:51:05;;;;;;;19.93;10.10;;;1.50;99.90;;;;;;5735319;24;21230;-87
2023/03/08 19:53:30;;;;;;;21.67;10.80;;;1.90;99.90;;;;;;4864044;29;20045;-87
2023/03/08 19:56:31;;;;;;;20.77;10.33;;;1.70;99.90;;;;;;4903247;23;20426;-86
2023/03/08 20:12:13;;;;;;;24.90;13.40;;;0.70;99.90;;;;;;5554240;24;20075;-87
2023/03/08 20:14:42;;;;;;;25.30;14.73;;;1.30;99.90;;;;;;5105020;24;20046;-87
2023/03/08 20:17:35;;;;;;;20.57;10.40;;;1.50;99.90;;;;;;4843326;24;20057;-86
2023/03/08 20:20:13;;;;;;;25.57;15.23;;;2.60;99.90;;;;;;4839147;24;20054;-87
2023/03/08 20:22:39;;;;;;;18.67;10.40;;;1.30;99.90;;;;;;4854912;29;20088;-86
2023/03/08 20:25:12;;;;;;;16.87;8.73;;;2.60;99.90;;;;;;4830553;29;20370;-86
2023/03/08 20:27:59;;;;;;;19.13;9.80;;;1.00;99.90;;;;;;4825563;29;20456;-86
2023/03/08 20:30:43;;;;;;;19.00;9.03;;;0.10;99.90;;;;;;4816393;29;20049;-86
2023/03/08 20:33:14;;;;;;;19.20;9.90;;;0.60;99.90;;;;;;4838797;29;20064;-86
2023/03/08 20:35:40;;;;;;;19.07;10.27;;;1.00;99.90;;;;;;4864342;24;20819;-86
2023/03/08 20:38:09;;;;;;;21.30;11.83;;;1.10;99.90;;;;;;4834905;24;20106;-86
2023/03/08 20:40:41;;;;;;;25.47;14.60;;;0.30;99.90;;;;;;4842460;29;20061;-87
2023/03/08 20:43:25;;;;;;;21.80;11.50;;;0.70;99.90;;;;;;4857354;29;20125;-86
2023/03/08 20:46:00;;;;;;;18.55;9.90;;;2.00;99.90;;;;;;4813423;29;20050;-87
2023/03/08 20:48:40;;;;;;;21.27;11.57;;;1.10;99.90;;;;;;4822702;29;20053;-86
2023/03/08 20:51:11;;;;;;;17.97;9.13;;;0.60;99.90;;;;;;4827886;24;20057;-86
2023/03/08 20:57:01;;;;;;;16.17;8.57;;;1.80;99.90;;;;;;4854285;24;20502;-86
2023/03/08 20:59:35;;;;;;;16.33;8.33;;;1.00;99.90;;;;;;4826628;29;20058;-86
2023/03/08 21:07:05;;;;;;;18.93;9.33;;;0.30;99.90;;;;;;4848340;24;20061;-86
2023/03/08 21:17:44;;;;;;;19.63;10.47;;;0.50;99.90;;;;;;4829543;29;20046;-86
2023/03/08 21:20:23;;;;;;;16.37;8.60;;;0.90;99.90;;;;;;4831038;24;20154;-86
2023/03/08 21:23:21;;;;;;;17.40;8.83;;;2.80;99.90;;;;;;4818935;29;20054;-86
2023/03/08 21:25:58;;;;;;;16.87;8.47;;;0.30;99.90;;;;;;4808119;29;20109;-86
2023/03/08 21:28:24;;;;;;;31.10;18.13;;;0.60;99.90;;;;;;4831561;29;20050;-86
2023/03/08 21:31:09;;;;;;;16.43;8.67;;;0.90;99.90;;;;;;4807662;29;20038;-86
2023/03/08 21:33:41;;;;;;;16.47;8.87;;;2.20;99.90;;;;;;4838063;29;20049;-86
2023/03/08 21:38:40;;;;;;;16.33;8.05;;;1.00;99.90;;;;;;4911728;23;20364;-86
2023/03/08 21:44:46;;;;;;;18.30;9.70;;;1.70;99.90;;;;;;4827121;29;20049;-86
2023/03/08 21:50:59;;;;;;;17.83;10.07;;;0.60;99.90;;;;;;4822911;29;20047;-86
2023/03/08 21:56:51;;;;;;;14.93;7.80;;;0.90;99.90;;;;;;4907364;23;20058;-86
2023/03/08 21:59:17;;;;;;;19.73;9.90;;;1.00;99.90;;;;;;4822552;29;20499;-86
2023/03/08 22:02:10;;;;;;;18.30;8.87;;;0.60;99.90;;;;;;4824069;29;20054;-86
2023/03/08 22:04:37;;;;;;;16.63;8.13;;;0.30;99.90;;;;;;4844870;29;20053;-86
2023/03/08 22:07:02;;;;;;;15.40;8.00;;;1.40;99.90;;;;;;4812465;29;20145;-86
2023/03/08 22:09:37;;;;;;;16.90;8.00;;;2.40;99.90;;;;;;4815918;29;20133;-86
2023/03/08 22:12:06;;;;;;;15.53;7.57;;;1.70;99.90;;;;;;4827207;29;20084;-86
2023/03/08 22:14:32;;;;;;;15.13;7.50;;;0.80;99.90;;;;;;4830333;29;20057;-86
2023/03/08 22:16:59;;;;;;;14.80;7.63;;;2.60;99.90;;;;;;4838093;29;20046;-86
2023/03/08 22:26:32;;;;;;;16.80;7.47;;;1.00;99.90;;;;;;4806220;29;20114;-86
2023/03/08 22:29:17;;;;;;;18.17;9.57;;;1.00;99.90;;;;;;4849817;23;20050;-86
2023/03/08 22:31:45;;;;;;;16.93;8.23;;;0.70;99.90;;;;;;4845663;29;20061;-86
2023/03/08 22:34:12;;;;;;;15.23;7.67;;;0.60;99.90;;;;;;4848411;29;20083;-86
2023/03/08 22:36:44;;;;;;;15.53;8.20;;;1.00;99.90;;;;;;4852833;29;20076;-86
2023/03/08 22:39:23;;;;;;;15.23;7.30;;;0.30;99.90;;;;;;4845980;29;20050;-86
2023/03/08 22:42:08;;;;;;;16.53;7.83;;;1.90;99.90;;;;;;4827707;29;20058;-86
2023/03/08 22:44:33;;;;;;;16.37;7.57;;;2.60;99.90;;;;;;4836416;23;20062;-84
2023/03/08 23:00:16;;;;;;;16.27;7.93;;;0.40;99.90;;;;;;5705662;23;20133;-84
2023/03/08 23:02:48;;;;;;;14.13;6.83;;;0.50;99.90;;;;;;4808474;29;20054;-84
2023/03/08 23:05:20;;;;;;;14.13;7.73;;;0.90;99.90;;;;;;4797122;29;20058;-84
2023/03/08 23:07:46;;;;;;;14.87;7.43;;;0.80;99.90;;;;;;4810789;29;20043;-85
2023/03/08 23:11:03;;;;;;;14.60;7.70;;;1.20;99.90;;;;;;4816758;24;20057;-84
2023/03/08 23:19:57;;;;;;;14.73;6.90;;;0.70;99.90;;;;;;4941577;23;20499;-84
2023/03/08 23:26:23;;;;;;;14.90;7.10;;;1.90;99.90;;;;;;4842444;29;20455;-84
2023/03/08 23:29:25;;;;;;;15.67;7.53;;;1.30;99.90;;;;;;4835499;29;20053;-83
2023/03/08 23:31:54;;;;;;;15.87;7.20;;;0.50;99.90;;;;;;4825427;29;20050;-83
2023/03/08 23:34:20;;;;;;;16.07;7.30;;;1.80;99.90;;;;;;5215861;24;20060;-84
2023/03/08 23:36:45;;;;;;;18.00;7.80;;;0.20;99.90;;;;;;4830537;29;20057;-83
2023/03/08 23:39:26;;;;;;;16.43;7.70;;;0.30;99.90;;;;;;4827860;29;20061;-83
2023/03/08 23:41:55;;;;;;;14.57;7.20;;;0.20;99.90;;;;;;4832000;29;20092;-83
2023/03/08 23:44:20;;;;;;;16.83;7.97;;;0.70;99.90;;;;;;4843557;29;20415;-83
2023/03/08 23:46:46;;;;;;;15.67;7.40;;;0.50;99.90;;;;;;4831846;29;20065;-83
2023/03/08 23:49:12;;;;;;;15.10;7.40;;;1.50;99.90;;;;;;4827902;29;20108;-83
2023/03/08 23:51:56;;;;;;;16.30;8.00;;;0.20;99.90;;;;;;4830920;29;20102;-83
2023/03/08 23:54:27;;;;;;;16.63;7.88;;;0.50;99.90;;;;;;4827643;29;20046;-83
2023/03/08 23:57:08;;;;;;;16.70;8.10;;;0.10;99.90;;;;;;4847164;29;20054;-82
2023/03/08 23:59:34;;;;;;;15.93;8.13;;;0.20;99.90;;;;;;4843718;29;20045;-83
